createdAt,value
2018-08-18T00:00:48.847Z,19.96
2018-08-18T00:03:16.664Z,19.87
2018-08-18T00:05:44.528Z,19.82
2018-08-18T00:08:12.487Z,19.73
2018-08-18T00:10:40.283Z,19.74
2018-08-18T00:13:08.161Z,19.72
2018-08-18T00:15:36.036Z,19.71
2018-08-18T00:18:03.871Z,19.75
2018-08-18T00:20:31.715Z,19.68
2018-08-18T00:22:59.547Z,19.61
2018-08-18T00:25:27.415Z,19.60
2018-08-18T00:27:56.623Z,19.53
2018-08-18T00:30:27.355Z,19.54
2018-08-18T00:32:55.231Z,19.51
2018-08-18T00:35:23.608Z,19.44
2018-08-18T00:37:51.362Z,19.40
2018-08-18T00:40:19.271Z,19.29
2018-08-18T00:42:47.183Z,19.24
2018-08-18T00:45:15.035Z,19.25
2018-08-18T00:47:42.843Z,19.25
2018-08-18T00:50:12.596Z,19.21
2018-08-18T00:52:40.375Z,19.13
2018-08-18T00:55:08.237Z,19.11
2018-08-18T00:57:36.074Z,19.00
2018-08-18T01:00:06.113Z,19.00
2018-08-18T01:02:34.042Z,18.89
2018-08-18T01:05:02.134Z,18.89
2018-08-18T01:07:31.039Z,18.90
2018-08-18T01:09:59.288Z,18.84
2018-08-18T01:12:27.573Z,18.94
2018-08-18T01:14:55.875Z,18.77
2018-08-18T01:17:24.092Z,18.83
2018-08-18T01:19:53.336Z,18.86
2018-08-18T01:22:21.247Z,18.68
2018-08-18T01:24:50.189Z,18.61
2018-08-18T01:27:18.452Z,18.59
2018-08-18T01:29:50.924Z,18.59
2018-08-18T01:32:18.675Z,18.59
2018-08-18T01:34:46.444Z,18.62
2018-08-18T01:37:17.988Z,18.49
2018-08-18T01:39:45.980Z,18.43
2018-08-18T01:42:13.770Z,18.43
2018-08-18T01:44:41.635Z,18.42
2018-08-18T01:47:10.119Z,18.38
2018-08-18T01:49:38.175Z,18.42
2018-08-18T01:52:14.187Z,18.37
2018-08-18T01:54:42.996Z,18.38
2018-08-18T01:57:11.707Z,18.33
2018-08-18T01:59:40.779Z,18.28
2018-08-18T02:02:14.295Z,18.35
2018-08-18T02:04:42.771Z,18.27
2018-08-18T02:07:21.276Z,18.15
2018-08-18T02:09:49.139Z,18.11
2018-08-18T02:12:17.097Z,18.06
2018-08-18T02:14:44.861Z,18.10
2018-08-18T02:17:24.494Z,18.05
2018-08-18T02:19:52.693Z,18.07
2018-08-18T02:22:20.792Z,18.02
2018-08-18T02:24:48.620Z,18.05
2018-08-18T02:27:16.446Z,18.06
2018-08-18T02:30:01.196Z,17.95
2018-08-18T02:32:36.561Z,18.00
2018-08-18T02:35:05.538Z,18.02
2018-08-18T02:37:33.392Z,17.93
2018-08-18T02:40:01.226Z,17.87
2018-08-18T02:42:28.986Z,17.90
2018-08-18T02:44:56.875Z,17.85
2018-08-18T02:47:24.696Z,17.81
2018-08-18T02:49:53.614Z,17.82
2018-08-18T02:52:24.331Z,17.82
2018-08-18T02:54:54.799Z,17.82
2018-08-18T02:57:25.932Z,17.77
2018-08-18T02:59:55.951Z,17.81
2018-08-18T03:02:23.709Z,17.76
2018-08-18T03:04:51.471Z,17.77
2018-08-18T03:07:19.331Z,17.69
2018-08-18T03:09:47.156Z,17.70
2018-08-18T03:12:15.008Z,17.65
2018-08-18T03:14:42.851Z,17.64
2018-08-18T03:17:11.970Z,17.56
2018-08-18T03:19:42.587Z,17.53
2018-08-18T03:22:10.514Z,17.46
2018-08-18T03:24:38.293Z,17.57
2018-08-18T03:27:06.166Z,17.44
2018-08-18T03:29:52.047Z,17.47
2018-08-18T03:32:21.118Z,17.48
2018-08-18T03:34:49.011Z,17.48
2018-08-18T03:37:27.583Z,17.40
2018-08-18T03:39:55.694Z,17.34
2018-08-18T03:42:29.696Z,17.32
2018-08-18T03:44:57.680Z,17.37
2018-08-18T03:47:25.843Z,17.31
2018-08-18T03:49:53.639Z,17.32
2018-08-18T03:52:21.518Z,17.20
2018-08-18T03:54:49.267Z,17.17
2018-08-18T03:57:17.449Z,17.26
2018-08-18T03:59:45.256Z,17.20
2018-08-18T04:02:13.136Z,17.18
2018-08-18T04:04:40.887Z,17.21
2018-08-18T04:07:09.107Z,17.23
2018-08-18T04:09:38.094Z,17.16
2018-08-18T04:12:10.076Z,17.09
2018-08-18T04:14:40.007Z,17.11
2018-08-18T04:17:25.212Z,17.12
2018-08-18T04:19:53.051Z,17.18
2018-08-18T04:22:22.306Z,17.11
2018-08-18T04:24:50.093Z,17.09
2018-08-18T04:27:42.161Z,17.11
2018-08-18T04:30:13.667Z,17.17
2018-08-18T04:32:57.832Z,17.10
2018-08-18T04:35:26.862Z,17.10
2018-08-18T04:37:55.528Z,17.07
2018-08-18T04:40:23.921Z,17.05
2018-08-18T04:42:51.739Z,17.10
2018-08-18T04:45:20.708Z,17.11
2018-08-18T04:47:48.544Z,17.03
2018-08-18T04:50:16.287Z,17.08
2018-08-18T04:52:44.125Z,17.13
2018-08-18T04:55:13.262Z,17.07
2018-08-18T04:57:41.091Z,17.13
2018-08-18T05:00:10.681Z,17.17
2018-08-18T05:02:59.007Z,17.19
2018-08-18T05:05:28.215Z,17.24
2018-08-18T05:07:58.323Z,17.30
2018-08-18T05:10:26.671Z,17.37
2018-08-18T05:12:54.428Z,17.38
2018-08-18T05:15:22.255Z,17.50
2018-08-18T05:17:50.234Z,17.49
2018-08-18T05:20:20.159Z,17.59
2018-08-18T05:22:48.008Z,17.63
2018-08-18T05:25:16.872Z,17.70
2018-08-18T05:27:44.652Z,17.77
2018-08-18T05:30:12.467Z,17.85
2018-08-18T05:32:40.363Z,17.95
2018-08-18T05:35:08.634Z,18.02
2018-08-18T05:37:36.429Z,18.14
2018-08-18T05:40:05.078Z,18.25
2018-08-18T05:42:32.850Z,18.36
2018-08-18T05:45:20.227Z,18.54
2018-08-18T05:47:48.167Z,18.80
2018-08-18T05:50:15.935Z,19.06
2018-08-18T05:52:43.823Z,19.27
2018-08-18T05:55:11.651Z,19.60
2018-08-18T05:57:39.398Z,19.88
2018-08-18T06:00:13.183Z,20.08
2018-08-18T06:02:45.641Z,20.10
2018-08-18T06:05:13.504Z,20.21
2018-08-18T06:07:41.263Z,20.31
2018-08-18T06:10:09.059Z,20.36
2018-08-18T06:12:36.887Z,20.50
2018-08-18T06:15:04.788Z,20.60
2018-08-18T06:17:32.618Z,20.67
2018-08-18T06:20:00.476Z,20.78
2018-08-18T06:22:28.297Z,20.80
2018-08-18T06:24:56.075Z,20.86
2018-08-18T06:27:28.220Z,20.92
2018-08-18T06:29:57.015Z,21.05
2018-08-18T06:32:25.603Z,21.14
2018-08-18T06:34:53.565Z,21.11
2018-08-18T06:37:21.374Z,21.25
2018-08-18T06:39:58.703Z,21.36
2018-08-18T06:42:36.340Z,21.43
2018-08-18T06:45:07.767Z,21.47
2018-08-18T06:47:35.757Z,21.62
2018-08-18T06:50:05.772Z,21.64
2018-08-18T06:52:33.605Z,21.78
2018-08-18T06:55:01.597Z,21.94
2018-08-18T06:57:39.703Z,21.95
2018-08-18T07:00:13.231Z,22.07
2018-08-18T07:02:41.076Z,22.19
2018-08-18T07:05:10.995Z,22.38
2018-08-18T07:07:39.112Z,22.49
2018-08-18T07:10:32.943Z,22.66
2018-08-18T07:13:04.231Z,22.79
2018-08-18T07:15:33.406Z,23.07
2018-08-18T07:18:01.367Z,23.30
2018-08-18T07:20:29.215Z,23.54
2018-08-18T07:22:57.095Z,23.63
2018-08-18T07:25:24.975Z,23.78
2018-08-18T07:27:59.404Z,24.02
2018-08-18T07:30:28.289Z,24.26
2018-08-18T07:32:56.283Z,24.48
2018-08-18T07:35:24.065Z,24.51
2018-08-18T07:37:51.970Z,24.57
2018-08-18T07:40:43.948Z,24.70
2018-08-18T07:43:23.963Z,24.82
2018-08-18T07:45:52.759Z,24.94
2018-08-18T07:48:20.601Z,24.99
2018-08-18T07:50:48.469Z,25.00
2018-08-18T07:53:16.354Z,24.98
2018-08-18T07:55:44.231Z,25.07
2018-08-18T07:58:17.187Z,25.21
2018-08-18T08:00:45.061Z,25.28
2018-08-18T08:03:14.119Z,25.28
2018-08-18T08:05:42.200Z,25.10
2018-08-18T08:08:10.635Z,25.46
2018-08-18T08:10:38.550Z,25.56
2018-08-18T08:13:06.436Z,25.68
2018-08-18T08:15:34.295Z,25.98
2018-08-18T08:18:02.231Z,26.03
2018-08-18T08:20:30.104Z,26.14
2018-08-18T08:22:57.916Z,26.11
2018-08-18T08:25:25.764Z,26.16
2018-08-18T08:27:54.162Z,26.17
2018-08-18T08:30:23.392Z,26.10
2018-08-18T08:32:51.379Z,26.24
2018-08-18T08:35:19.383Z,26.23
2018-08-18T08:37:48.247Z,26.42
2018-08-18T08:40:17.783Z,26.48
2018-08-18T08:42:45.703Z,26.39
2018-08-18T08:45:16.947Z,26.27
2018-08-18T08:47:45.968Z,26.25
2018-08-18T08:50:18.418Z,26.09
2018-08-18T08:52:50.499Z,26.01
2018-08-18T08:55:19.649Z,25.99
2018-08-18T08:57:47.511Z,25.88
2018-08-18T09:00:15.441Z,25.75
2018-08-18T09:02:43.335Z,25.84
2018-08-18T09:05:12.159Z,25.80
2018-08-18T09:07:40.387Z,25.82
2018-08-18T09:10:10.296Z,25.86
2018-08-18T09:12:38.787Z,25.77
2018-08-18T09:15:08.467Z,25.79
2018-08-18T09:17:36.328Z,25.50
2018-08-18T09:20:06.172Z,25.65
2018-08-18T09:22:59.672Z,25.62
2018-08-18T09:25:29.761Z,25.57
2018-08-18T09:27:59.099Z,25.62
2018-08-18T09:30:28.215Z,25.56
2018-08-18T09:33:04.649Z,25.31
2018-08-18T09:35:52.504Z,25.46
2018-08-18T09:38:20.337Z,25.61
2018-08-18T09:40:48.107Z,25.60
2018-08-18T09:43:21.660Z,25.64
2018-08-18T09:45:49.601Z,25.79
2018-08-18T09:48:17.491Z,25.89
2018-08-18T09:50:45.443Z,26.07
2018-08-18T09:53:13.140Z,26.20
2018-08-18T09:55:40.977Z,26.35
2018-08-18T09:58:09.356Z,26.57
2018-08-18T10:00:40.876Z,26.71
2018-08-18T10:03:10.412Z,26.60
2018-08-18T10:05:38.748Z,26.72
2018-08-18T10:08:07.109Z,26.89
2018-08-18T10:10:34.941Z,27.17
2018-08-18T10:13:03.152Z,27.24
2018-08-18T10:15:30.967Z,27.42
2018-08-18T10:17:58.798Z,27.34
2018-08-18T10:20:26.683Z,27.38
2018-08-18T10:22:54.499Z,27.46
2018-08-18T10:25:22.300Z,27.60
2018-08-18T10:27:50.114Z,27.42
2018-08-18T10:30:17.990Z,27.61
2018-08-18T10:32:50.387Z,27.55
2018-08-18T10:35:24.009Z,27.65
2018-08-18T10:37:51.891Z,27.86
2018-08-18T10:40:19.731Z,28.20
2018-08-18T10:42:47.584Z,28.20
2018-08-18T10:45:15.390Z,28.81
2018-08-18T10:47:43.219Z,29.15
2018-08-18T10:51:31.634Z,29.47
2018-08-18T10:54:00.806Z,30.12
2018-08-18T10:56:29.319Z,30.25
2018-08-18T10:59:14.045Z,30.48
2018-08-18T11:02:00.205Z,30.14
2018-08-18T11:04:30.238Z,30.31
2018-08-18T11:06:58.065Z,30.36
2018-08-18T11:09:25.855Z,30.84
2018-08-18T11:11:53.729Z,31.38
2018-08-18T11:14:21.484Z,31.89
2018-08-18T11:16:49.280Z,32.15
2018-08-18T11:19:17.081Z,32.55
2018-08-18T11:21:45.465Z,33.35
2018-08-18T11:24:13.344Z,33.20
2018-08-18T11:26:41.171Z,34.36
2018-08-18T11:29:18.071Z,34.68
2018-08-18T11:31:45.911Z,34.27
2018-08-18T11:34:15.858Z,34.68
2018-08-18T11:37:00.540Z,34.47
2018-08-18T11:39:29.611Z,34.32
2018-08-18T11:41:58.240Z,35.43
2018-08-18T11:44:26.024Z,35.46
2018-08-18T11:46:53.896Z,35.62
2018-08-18T11:49:21.671Z,35.82
2018-08-18T11:51:49.436Z,35.96
2018-08-18T11:54:17.210Z,35.52
2018-08-18T11:56:51.417Z,36.36
2018-08-18T11:59:19.259Z,36.35
2018-08-18T12:01:49.437Z,36.92
2018-08-18T12:04:19.319Z,36.35
2018-08-18T12:06:52.973Z,36.16
2018-08-18T12:09:20.836Z,36.62
2018-08-18T12:11:49.308Z,36.76
2018-08-18T12:14:17.244Z,36.79
2018-08-18T12:16:45.047Z,36.80
2018-08-18T12:19:12.807Z,37.03
2018-08-18T12:21:42.424Z,37.11
2018-08-18T12:24:12.123Z,37.24
2018-08-18T12:26:40.861Z,36.77
2018-08-18T12:29:11.292Z,36.95
2018-08-18T12:31:39.166Z,37.00
2018-08-18T12:34:06.928Z,37.02
2018-08-18T12:36:34.792Z,37.22
2018-08-18T12:39:03.499Z,36.88
2018-08-18T12:41:31.337Z,36.88
2018-08-18T12:43:59.083Z,36.49
2018-08-18T12:46:36.039Z,36.68
2018-08-18T12:49:05.403Z,36.73
2018-08-18T12:51:33.255Z,36.34
2018-08-18T12:54:01.084Z,35.90
2018-08-18T12:56:28.879Z,35.90
2018-08-18T12:58:56.719Z,36.06
2018-08-18T13:01:45.082Z,35.87
2018-08-18T13:04:16.356Z,35.59
2018-08-18T13:06:46.609Z,35.90
2018-08-18T13:09:15.864Z,35.72
2018-08-18T13:11:45.971Z,35.66
2018-08-18T13:14:20.830Z,35.26
2018-08-18T13:16:48.635Z,35.48
2018-08-18T13:19:18.863Z,35.11
2018-08-18T13:21:46.752Z,35.01
2018-08-18T13:24:14.698Z,35.04
2018-08-18T13:26:42.476Z,34.98
2018-08-18T13:29:10.255Z,34.93
2018-08-18T13:31:38.764Z,34.74
2018-08-18T13:34:08.380Z,34.46
2018-08-18T13:36:37.583Z,34.36
2018-08-18T13:39:16.211Z,34.32
2018-08-18T13:41:44.792Z,34.13
2018-08-18T13:44:24.583Z,33.93
2018-08-18T13:46:52.554Z,33.69
2018-08-18T13:49:22.547Z,33.15
2018-08-18T13:51:51.235Z,32.66
2018-08-18T13:54:19.122Z,32.67
2018-08-18T13:56:47.151Z,32.51
2018-08-18T13:59:43.852Z,32.29
2018-08-18T14:02:11.819Z,32.17
2018-08-18T14:04:40.740Z,32.06
2018-08-18T14:07:09.243Z,31.91
2018-08-18T14:09:37.028Z,31.77
2018-08-18T14:12:19.790Z,31.66
2018-08-18T14:14:48.243Z,31.60
2018-08-18T14:17:18.605Z,31.48
2018-08-18T14:19:46.391Z,31.45
2018-08-18T14:22:18.387Z,31.38
2018-08-18T14:24:46.175Z,31.36
2018-08-18T14:27:16.788Z,31.05
2018-08-18T14:29:44.594Z,30.78
2018-08-18T14:32:19.431Z,30.80
2018-08-18T14:34:55.433Z,30.94
2018-08-18T14:37:23.831Z,30.86
2018-08-18T14:39:52.872Z,30.83
2018-08-18T14:42:20.980Z,30.89
2018-08-18T14:44:49.041Z,30.82
2018-08-18T14:47:16.807Z,30.66
2018-08-18T14:49:44.588Z,30.66
2018-08-18T14:52:12.339Z,30.62
2018-08-18T14:54:40.135Z,30.58
2018-08-18T14:57:07.983Z,30.54
2018-08-18T14:59:36.847Z,30.38
2018-08-18T15:02:06.426Z,30.19
2018-08-18T15:04:34.839Z,30.25
2018-08-18T15:07:03.067Z,30.28
2018-08-18T15:09:40.463Z,30.22
2018-08-18T15:12:08.318Z,30.33
2018-08-18T15:14:36.078Z,30.23
2018-08-18T15:17:03.907Z,30.19
2018-08-18T15:19:31.714Z,30.17
2018-08-18T15:22:01.497Z,30.00
2018-08-18T15:24:29.324Z,29.89
2018-08-18T15:26:57.222Z,29.85
2018-08-18T15:29:25.101Z,29.81
2018-08-18T15:31:55.315Z,29.87
2018-08-18T15:34:23.356Z,29.90
2018-08-18T15:36:51.293Z,29.91
2018-08-18T15:39:19.039Z,29.79
2018-08-18T15:41:46.863Z,29.86
2018-08-18T15:44:14.730Z,29.92
2018-08-18T15:46:42.511Z,29.92
2018-08-18T15:49:12.160Z,29.94
2018-08-18T15:51:39.976Z,29.91
2018-08-18T15:54:07.815Z,29.83
2018-08-18T15:56:35.612Z,29.67
2018-08-18T15:59:03.874Z,29.62
2018-08-18T16:01:33.083Z,29.64
2018-08-18T16:04:02.247Z,29.53
2018-08-18T16:06:33.458Z,29.55
2018-08-18T16:09:01.299Z,29.56
2018-08-18T16:11:29.179Z,29.42
2018-08-18T16:13:57.012Z,29.48
2018-08-18T16:16:24.830Z,29.41
2018-08-18T16:19:01.712Z,29.39
2018-08-18T16:21:32.536Z,29.40
2018-08-18T16:24:01.181Z,29.36
2018-08-18T16:26:28.924Z,29.33
2018-08-18T16:28:56.792Z,29.31
2018-08-18T16:31:24.551Z,29.04
2018-08-18T16:33:52.935Z,29.08
2018-08-18T16:36:20.778Z,29.06
2018-08-18T16:38:48.592Z,29.08
2018-08-18T16:41:16.459Z,28.91
2018-08-18T16:43:44.256Z,28.88
2018-08-18T16:46:31.020Z,28.88
2018-08-18T16:48:58.845Z,28.83
2018-08-18T16:51:26.787Z,28.86
2018-08-18T16:53:55.047Z,28.78
2018-08-18T16:56:28.311Z,28.76
2018-08-18T16:58:57.427Z,28.67
2018-08-18T17:01:25.331Z,28.61
2018-08-18T17:03:53.559Z,28.60
2018-08-18T17:06:21.492Z,28.47
2018-08-18T17:08:49.347Z,28.42
2018-08-18T17:11:17.217Z,28.40
2018-08-18T17:13:45.003Z,28.34
2018-08-18T17:16:15.934Z,28.19
2018-08-18T17:18:44.389Z,28.19
2018-08-18T17:21:13.267Z,28.14
2018-08-18T17:23:41.544Z,28.08
2018-08-18T17:26:09.339Z,27.99
2018-08-18T17:28:37.583Z,27.84
2018-08-18T17:31:05.705Z,27.78
2018-08-18T17:33:33.822Z,27.60
2018-08-18T17:36:01.668Z,27.57
2018-08-18T17:38:29.539Z,27.41
2018-08-18T17:40:57.495Z,27.43
2018-08-18T17:43:25.399Z,27.32
2018-08-18T17:45:59.638Z,27.28
2018-08-18T17:48:28.993Z,27.11
2018-08-18T17:50:57.937Z,27.08
2018-08-18T17:53:28.248Z,26.95
2018-08-18T17:56:04.766Z,26.88
2018-08-18T17:58:32.596Z,26.78
2018-08-18T18:01:07.287Z,26.68
2018-08-18T18:03:35.151Z,26.56
2018-08-18T18:06:03.188Z,26.45
2018-08-18T18:08:32.572Z,26.40
2018-08-18T18:11:01.419Z,26.29
2018-08-18T18:13:30.088Z,26.24
2018-08-18T18:15:58.484Z,26.15
2018-08-18T18:18:34.440Z,25.98
2018-08-18T18:21:02.203Z,25.98
2018-08-18T18:23:30.059Z,25.88
2018-08-18T18:25:58.272Z,25.69
2018-08-18T18:28:26.029Z,25.66
2018-08-18T18:30:54.035Z,25.55
2018-08-18T18:33:21.966Z,25.29
2018-08-18T18:35:50.523Z,25.21
2018-08-18T18:38:18.895Z,25.18
2018-08-18T18:40:47.380Z,25.03
2018-08-18T18:43:15.235Z,25.02
2018-08-18T18:45:43.238Z,24.80
2018-08-18T18:48:13.946Z,24.71
2018-08-18T18:50:45.142Z,24.57
2018-08-18T18:53:13.121Z,24.44
2018-08-18T18:55:46.482Z,24.51
2018-08-18T18:58:14.753Z,24.32
2018-08-18T19:00:50.086Z,24.13
2018-08-18T19:03:17.956Z,24.16
2018-08-18T19:05:47.487Z,23.93
2018-08-18T19:08:18.095Z,23.91
2018-08-18T19:10:46.376Z,23.82
2018-08-18T19:13:14.158Z,23.65
2018-08-18T19:15:41.952Z,23.59
2018-08-18T19:18:11.131Z,23.56
2018-08-18T19:20:39.028Z,23.43
2018-08-18T19:23:12.759Z,23.32
2018-08-18T19:25:42.048Z,23.10
2018-08-18T19:28:15.454Z,23.08
2018-08-18T19:30:43.271Z,22.99
2018-08-18T19:33:12.279Z,22.86
2018-08-18T19:35:43.135Z,22.80
2018-08-18T19:38:11.579Z,22.71
2018-08-18T19:40:40.876Z,22.67
2018-08-18T19:43:15.317Z,22.73
2018-08-18T19:45:43.414Z,22.56
2018-08-18T19:48:13.128Z,22.53
2018-08-18T19:50:51.991Z,22.41
2018-08-18T19:53:23.279Z,22.35
2018-08-18T19:55:52.007Z,22.45
2018-08-18T19:58:21.042Z,22.37
2018-08-18T20:00:49.677Z,22.30
2018-08-18T20:03:18.387Z,22.15
2018-08-18T20:05:46.260Z,22.18
2018-08-18T20:08:17.395Z,21.97
2018-08-18T20:10:50.896Z,22.01
2018-08-18T20:13:19.796Z,21.83
2018-08-18T20:15:48.960Z,21.61
2018-08-18T20:18:17.059Z,21.74
2018-08-18T20:20:45.045Z,21.82
2018-08-18T20:23:15.399Z,21.74
2018-08-18T20:25:43.475Z,21.70
2018-08-18T20:28:12.475Z,21.62
2018-08-18T20:30:40.286Z,21.58
2018-08-18T20:33:08.195Z,21.59
2018-08-18T20:35:36.365Z,21.44
2018-08-18T20:38:04.981Z,21.50
2018-08-18T20:40:32.995Z,21.41
2018-08-18T20:43:01.779Z,21.40
2018-08-18T20:45:35.227Z,21.32
2018-08-18T20:48:07.551Z,21.26
2018-08-18T20:53:07.355Z,21.03
2018-08-18T20:55:35.281Z,20.92
2018-08-18T20:58:03.271Z,20.82
2018-08-18T21:00:31.079Z,20.76
2018-08-18T21:02:58.871Z,20.65
2018-08-18T21:05:27.235Z,20.51
2018-08-18T21:07:58.643Z,20.56
2018-08-18T21:10:32.803Z,20.57
2018-08-18T21:13:00.580Z,20.49
2018-08-18T21:15:28.391Z,20.47
2018-08-18T21:17:57.759Z,20.38
2018-08-18T21:20:25.856Z,20.45
2018-08-18T21:22:53.699Z,20.39
2018-08-18T21:25:27.617Z,20.30
2018-08-18T21:27:55.476Z,20.24
2018-08-18T21:30:23.347Z,20.24
2018-08-18T21:32:51.579Z,20.17
2018-08-18T21:35:19.655Z,20.16
2018-08-18T21:37:47.431Z,20.03
2018-08-18T21:40:15.215Z,19.93
2018-08-18T21:42:43.376Z,19.81
2018-08-18T21:45:11.883Z,19.68
2018-08-18T21:47:39.782Z,19.61
2018-08-18T21:50:07.715Z,19.63
2018-08-18T21:52:35.532Z,19.48
2018-08-18T21:55:03.455Z,19.36
2018-08-18T21:57:44.449Z,19.43
2018-08-18T22:00:12.360Z,19.39
2018-08-18T22:02:44.862Z,19.30
2018-08-18T22:05:13.650Z,19.19
2018-08-18T22:07:48.437Z,19.24
2018-08-18T22:10:17.163Z,19.08
2018-08-18T22:12:45.376Z,19.15
2018-08-18T22:15:17.750Z,19.10
2018-08-18T22:17:46.824Z,19.11
2018-08-18T22:20:15.736Z,19.05
2018-08-18T22:22:44.157Z,18.99
2018-08-18T22:25:12.081Z,18.98
2018-08-18T22:27:39.947Z,18.82
2018-08-18T22:30:10.956Z,18.79
2018-08-18T22:32:40.086Z,18.76
2018-08-18T22:35:09.641Z,18.62
2018-08-18T22:37:37.541Z,18.63
2018-08-18T22:40:05.911Z,18.48
2018-08-18T22:42:33.879Z,18.46
2018-08-18T22:45:19.092Z,18.31
2018-08-18T22:47:46.962Z,18.28
2018-08-18T22:50:15.069Z,18.26
2018-08-18T22:52:48.121Z,18.19
2018-08-18T22:55:16.250Z,18.25
2018-08-18T22:57:48.544Z,18.15
2018-08-18T23:00:16.811Z,18.09
2018-08-18T23:02:44.832Z,18.02
2018-08-18T23:05:12.758Z,18.09
2018-08-18T23:07:40.540Z,18.03
2018-08-18T23:10:09.494Z,18.07
2018-08-18T23:12:37.379Z,17.90
2018-08-18T23:15:05.358Z,17.82
2018-08-18T23:17:33.108Z,17.77
2018-08-18T23:20:00.867Z,17.59
2018-08-18T23:23:01.931Z,17.58
2018-08-18T23:25:31.091Z,17.53
2018-08-18T23:27:58.999Z,17.55
2018-08-18T23:30:32.626Z,17.45
2018-08-18T23:33:01.595Z,17.37
2018-08-18T23:35:29.865Z,17.45
2018-08-18T23:37:57.839Z,17.49
2018-08-18T23:40:25.911Z,17.38
2018-08-18T23:42:54.007Z,17.44
2018-08-18T23:45:22.295Z,17.37
2018-08-18T23:47:56.885Z,17.46
2018-08-18T23:50:26.236Z,17.41
2018-08-18T23:52:57.088Z,17.33
2018-08-18T23:55:25.932Z,17.34
2018-08-18T23:57:55.691Z,17.36
